Time;durP1;ratioP1;P1;durP2;ratioP2;P2;SDS_P1;SDS_P2;PMS_P1;PMS_P2;Temp;Humidity;BMP_temperature;BMP_pressure;BME280_temperature;BME280_humidity;BME280_pressure;Samples;Min_cycle;Max_cycle;Signal;HPM_P1;HPM_P2
2024/02/16 00:01:01;;;;;;;18.17;9.50;;;-6.60;99.00;;;;;;5064760;28;20056;-76
2024/02/16 00:03:27;;;;;;;18.90;10.52;;;-6.60;99.10;;;;;;5070460;28;20050;-77
2024/02/16 00:05:54;;;;;;;17.67;10.65;;;-6.60;99.10;;;;;;5070789;28;20036;-76
2024/02/16 00:08:20;;;;;;;16.60;9.45;;;-6.60;99.20;;;;;;5071770;28;20039;-77
2024/02/16 00:10:47;;;;;;;29.95;10.55;;;-6.60;99.30;;;;;;5065277;28;20370;-78
2024/02/16 00:13:13;;;;;;;19.08;10.95;;;-6.60;99.40;;;;;;5053897;28;20033;-76
2024/02/16 00:15:39;;;;;;;15.77;9.25;;;-6.60;99.40;;;;;;5070271;28;20036;-77
2024/02/16 00:18:06;;;;;;;19.42;9.68;;;-6.60;99.50;;;;;;5070275;28;20032;-80
2024/02/16 00:20:32;;;;;;;20.70;10.23;;;-6.60;99.40;;;;;;5070379;28;20025;-77
2024/02/16 00:23:00;;;;;;;16.23;9.23;;;-6.60;99.40;;;;;;5071549;28;20024;-76
2024/02/16 00:25:26;;;;;;;21.15;12.40;;;-6.60;99.30;;;;;;5069982;28;20120;-77
2024/02/16 00:27:54;;;;;;;16.00;10.15;;;-6.60;99.20;;;;;;5071910;28;20032;-80
2024/02/16 00:30:21;;;;;;;17.33;9.70;;;-6.60;99.20;;;;;;5073732;28;20078;-81
2024/02/16 00:32:47;;;;;;;19.48;10.60;;;-6.60;99.20;;;;;;5071459;28;20074;-80
2024/02/16 00:35:16;;;;;;;16.48;10.13;;;-6.70;99.10;;;;;;5091766;28;20409;-79
2024/02/16 00:37:42;;;;;;;16.88;9.95;;;-6.60;99.10;;;;;;5063256;28;20021;-77
2024/02/16 00:40:08;;;;;;;16.30;10.50;;;-6.60;99.10;;;;;;5075194;28;20029;-79
2024/02/16 00:42:34;;;;;;;19.60;10.17;;;-6.60;99.10;;;;;;5076445;28;20527;-78
2024/02/16 00:45:00;;;;;;;20.17;11.13;;;-6.60;99.10;;;;;;5073759;28;20028;-78
2024/02/16 00:47:29;;;;;;;22.02;9.95;;;-6.60;99.00;;;;;;5073387;28;20067;-78
2024/02/16 00:49:56;;;;;;;21.92;11.65;;;-6.70;98.90;;;;;;5075875;28;20401;-78
2024/02/16 00:52:22;;;;;;;15.70;8.68;;;-6.70;98.80;;;;;;5074160;28;20095;-78
2024/02/16 00:54:48;;;;;;;20.17;9.45;;;-6.70;98.80;;;;;;5074350;28;20052;-78
2024/02/16 00:57:15;;;;;;;19.40;9.37;;;-6.60;99.00;;;;;;5071034;28;20412;-76
2024/02/16 00:59:41;;;;;;;18.35;10.48;;;-6.60;99.10;;;;;;5075412;28;20272;-78
2024/02/16 01:02:07;;;;;;;17.00;9.73;;;-6.60;99.30;;;;;;5076323;28;20051;-78
2024/02/16 01:04:33;;;;;;;20.27;9.68;;;-6.60;99.10;;;;;;5073363;28;20056;-78
2024/02/16 01:06:59;;;;;;;17.35;11.82;;;-6.60;99.00;;;;;;5073327;28;20392;-79
2024/02/16 01:09:26;;;;;;;17.33;9.18;;;-6.60;98.90;;;;;;5071486;28;20055;-77
2024/02/16 01:11:53;;;;;;;18.63;10.90;;;-6.70;98.80;;;;;;5082981;28;20012;-79
2024/02/16 01:14:19;;;;;;;21.88;11.00;;;-6.70;98.70;;;;;;5077735;28;20540;-78
2024/02/16 01:16:45;;;;;;;17.90;10.93;;;-6.70;99.00;;;;;;5074214;28;20025;-77
2024/02/16 01:19:12;;;;;;;14.55;8.68;;;-6.70;99.00;;;;;;5074180;28;20028;-79
2024/02/16 01:21:38;;;;;;;19.00;10.50;;;-6.60;99.00;;;;;;5074115;28;20394;-78
2024/02/16 01:24:04;;;;;;;13.80;8.82;;;-6.60;99.00;;;;;;5074181;28;20028;-78
2024/02/16 01:26:31;;;;;;;25.52;12.80;;;-6.70;99.10;;;;;;5076237;28;20028;-78
2024/02/16 01:28:58;;;;;;;18.95;10.23;;;-6.60;99.20;;;;;;5074396;28;20078;-77
2024/02/16 01:31:24;;;;;;;18.83;11.20;;;-6.60;99.20;;;;;;5074059;28;20017;-78
2024/02/16 01:33:50;;;;;;;20.77;10.25;;;-6.60;99.10;;;;;;5072938;28;20020;-79
2024/02/16 01:36:16;;;;;;;16.63;10.32;;;-6.60;99.00;;;;;;5072587;28;20024;-80
2024/02/16 01:38:41;;;;;;;19.27;9.77;;;-6.60;99.00;;;;;;5073126;28;20042;-78
2024/02/16 01:41:08;;;;;;;22.60;10.10;;;-6.60;99.00;;;;;;5073034;28;20036;-80
2024/02/16 01:43:34;;;;;;;23.45;10.73;;;-6.60;98.90;;;;;;5085334;28;20079;-78
2024/02/16 01:46:00;;;;;;;20.80;10.82;;;-6.60;98.80;;;;;;5069985;28;20068;-77
2024/02/16 01:48:27;;;;;;;22.45;10.07;;;-6.60;98.70;;;;;;5072661;28;20028;-78
2024/02/16 01:50:54;;;;;;;20.10;10.70;;;-6.60;98.60;;;;;;5071496;28;20013;-79
2024/02/16 01:53:21;;;;;;;17.95;9.57;;;-6.60;98.70;;;;;;5072445;28;20028;-78
2024/02/16 01:55:47;;;;;;;19.40;10.15;;;-6.60;98.70;;;;;;5071400;28;20027;-78
2024/02/16 01:58:13;;;;;;;19.60;10.20;;;-6.50;98.80;;;;;;5085730;28;20028;-77
2024/02/16 02:00:42;;;;;;;18.58;10.75;;;-6.50;99.00;;;;;;5077284;28;20021;-77
2024/02/16 02:03:08;;;;;;;17.08;10.07;;;-6.50;98.90;;;;;;5073379;28;20028;-77
2024/02/16 02:05:35;;;;;;;19.27;10.90;;;-6.50;98.80;;;;;;5073761;28;20036;-78
2024/02/16 02:08:12;;;;;;;18.10;12.15;;;-6.50;98.70;;;;;;5070055;28;20033;-79
2024/02/16 02:10:38;;;;;;;18.90;10.40;;;-6.50;98.60;;;;;;5063361;28;20044;-78
2024/02/16 02:13:04;;;;;;;22.45;10.55;;;-6.50;98.60;;;;;;5069983;28;20037;-78
2024/02/16 02:15:29;;;;;;;20.02;10.98;;;-6.50;98.40;;;;;;5069394;28;20017;-79
2024/02/16 02:17:58;;;;;;;22.15;12.07;;;-6.50;98.40;;;;;;5073230;28;20035;-77
2024/02/16 02:20:23;;;;;;;18.10;10.23;;;-6.50;98.40;;;;;;5065130;28;20017;-78
2024/02/16 02:22:49;;;;;;;18.42;11.35;;;-6.50;98.30;;;;;;5068528;28;20028;-78
2024/02/16 02:25:15;;;;;;;21.42;11.50;;;-6.50;98.20;;;;;;5071372;28;20048;-77
2024/02/16 02:27:42;;;;;;;18.15;11.57;;;-6.50;98.20;;;;;;5067401;28;20052;-77
2024/02/16 02:30:08;;;;;;;21.38;11.30;;;-6.50;98.30;;;;;;5073265;28;20093;-77
2024/02/16 02:32:34;;;;;;;21.07;11.73;;;-6.50;98.30;;;;;;5069319;28;20036;-78
2024/02/16 02:35:01;;;;;;;20.35;11.43;;;-6.50;98.40;;;;;;5071618;28;20020;-76
2024/02/16 02:37:27;;;;;;;21.45;11.90;;;-6.40;98.50;;;;;;5078829;28;20036;-77
2024/02/16 02:39:53;;;;;;;21.38;11.30;;;-6.40;98.50;;;;;;5070826;28;20021;-76
2024/02/16 02:42:19;;;;;;;20.17;11.20;;;-6.40;98.40;;;;;;5069984;28;20073;-78
2024/02/16 02:44:49;;;;;;;18.63;10.70;;;-6.40;98.40;;;;;;5069132;28;20031;-76
2024/02/16 02:47:17;;;;;;;25.95;13.10;;;-6.40;98.20;;;;;;5072530;28;20121;-78
2024/02/16 02:49:43;;;;;;;25.58;12.90;;;-6.40;98.20;;;;;;5067947;28;20391;-78
2024/02/16 02:52:09;;;;;;;20.60;11.98;;;-6.40;98.10;;;;;;5066216;28;20466;-78
2024/02/16 02:54:35;;;;;;;26.30;13.70;;;-6.50;98.10;;;;;;5078299;28;20111;-77
2024/02/16 02:57:02;;;;;;;20.52;11.48;;;-6.50;98.10;;;;;;5072282;28;20028;-77
2024/02/16 02:59:28;;;;;;;20.25;11.48;;;-6.50;98.00;;;;;;5070806;28;20558;-78
2024/02/16 03:01:54;;;;;;;19.25;11.77;;;-6.50;98.10;;;;;;5072403;28;20056;-79
2024/02/16 03:04:20;;;;;;;23.67;12.95;;;-6.40;98.30;;;;;;5070163;28;20052;-79
2024/02/16 03:06:46;;;;;;;21.08;11.93;;;-6.40;98.30;;;;;;5060624;28;20036;-78
2024/02/16 03:09:15;;;;;;;19.45;11.02;;;-6.40;98.20;;;;;;5072029;28;20546;-77
2024/02/16 03:11:41;;;;;;;17.50;10.50;;;-6.40;98.20;;;;;;5071993;28;20107;-77
2024/02/16 03:14:07;;;;;;;19.73;10.73;;;-6.50;98.00;;;;;;5083864;28;20020;-80
2024/02/16 03:16:34;;;;;;;21.45;11.30;;;-6.40;98.10;;;;;;5072284;28;20025;-77
2024/02/16 03:19:00;;;;;;;17.55;10.60;;;-6.40;98.20;;;;;;5072434;28;20043;-78
2024/02/16 03:21:26;;;;;;;17.10;10.88;;;-6.40;98.30;;;;;;5072931;28;20016;-78
2024/02/16 03:23:51;;;;;;;18.60;11.50;;;-6.40;98.40;;;;;;5071942;28;20029;-79
2024/02/16 03:26:20;;;;;;;27.80;13.00;;;-6.40;98.30;;;;;;5071879;28;20029;-77
2024/02/16 03:28:49;;;;;;;20.48;11.25;;;-6.40;98.30;;;;;;5073277;28;20017;-76
2024/02/16 03:31:20;;;;;;;27.73;13.10;;;-6.40;98.20;;;;;;5073514;28;20107;-77
2024/02/16 03:33:46;;;;;;;21.45;10.98;;;-6.40;98.50;;;;;;5070354;28;20028;-77
2024/02/16 03:36:14;;;;;;;23.70;13.80;;;-6.40;98.30;;;;;;5074554;28;20095;-77
2024/02/16 03:38:44;;;;;;;20.08;11.35;;;-6.40;98.30;;;;;;5072223;28;20021;-78
2024/02/16 03:41:21;;;;;;;23.73;12.82;;;-6.40;98.20;;;;;;5069074;28;20029;-78
2024/02/16 03:43:47;;;;;;;26.95;13.50;;;-6.40;98.20;;;;;;5070650;28;20017;-77
2024/02/16 03:46:13;;;;;;;23.15;13.20;;;-6.40;98.40;;;;;;5079165;28;20039;-78
2024/02/16 03:48:40;;;;;;;25.42;13.52;;;-6.40;98.40;;;;;;5078685;28;20025;-78
2024/02/16 03:51:05;;;;;;;29.60;15.30;;;-6.40;98.30;;;;;;5069584;28;20827;-78
2024/02/16 03:53:32;;;;;;;34.75;16.77;;;-6.40;98.40;;;;;;5071213;28;20036;-79
2024/02/16 03:55:58;;;;;;;33.15;17.52;;;-6.40;98.30;;;;;;5072208;28;20385;-77
2024/02/16 03:58:24;;;;;;;34.72;17.60;;;-6.40;98.20;;;;;;5069187;28;20493;-77
2024/02/16 04:00:50;;;;;;;34.83;19.38;;;-6.40;98.20;;;;;;5069940;28;20028;-79
2024/02/16 04:03:16;;;;;;;42.38;20.27;;;-6.40;98.30;;;;;;5071836;28;20081;-77
2024/02/16 04:05:43;;;;;;;45.85;21.27;;;-6.40;98.20;;;;;;5059585;28;20032;-78
2024/02/16 04:08:08;;;;;;;33.13;20.08;;;-6.40;98.30;;;;;;5075483;28;20714;-78
2024/02/16 04:10:35;;;;;;;35.05;19.25;;;-6.40;98.30;;;;;;5067033;28;20098;-78
2024/02/16 04:13:02;;;;;;;36.15;18.05;;;-6.40;98.50;;;;;;5072786;28;20056;-79
2024/02/16 04:15:28;;;;;;;28.47;14.73;;;-6.40;98.80;;;;;;5074099;28;20033;-80
2024/02/16 04:17:53;;;;;;;34.92;18.58;;;-6.40;98.70;;;;;;5070909;28;20269;-79
2024/02/16 04:20:20;;;;;;;27.35;18.25;;;-6.40;98.70;;;;;;5075421;28;20086;-78
2024/02/16 04:22:46;;;;;;;27.38;14.85;;;-6.40;98.70;;;;;;5074001;28;20040;-78
2024/02/16 04:25:12;;;;;;;30.42;17.67;;;-6.40;98.80;;;;;;5076544;28;20075;-79
2024/02/16 04:27:38;;;;;;;33.70;17.90;;;-6.40;98.80;;;;;;5075673;28;20082;-78
2024/02/16 04:30:05;;;;;;;32.67;18.15;;;-6.40;98.80;;;;;;5077014;28;20350;-78
2024/02/16 04:32:31;;;;;;;28.10;15.90;;;-6.50;98.70;;;;;;5075322;28;20128;-78
2024/02/16 04:34:57;;;;;;;29.38;15.85;;;-6.40;98.80;;;;;;5072719;28;20054;-79
2024/02/16 04:37:23;;;;;;;29.55;16.48;;;-6.50;99.00;;;;;;5076582;28;20432;-80
2024/02/16 04:39:49;;;;;;;26.73;13.68;;;-6.50;99.10;;;;;;5075204;28;20029;-79
2024/02/16 04:42:16;;;;;;;23.83;14.20;;;-6.40;99.10;;;;;;5074998;28;20074;-78
2024/02/16 04:44:42;;;;;;;29.83;13.68;;;-6.50;98.90;;;;;;5073648;28;20465;-79
2024/02/16 04:47:09;;;;;;;22.85;13.85;;;-6.50;98.90;;;;;;5073526;28;20064;-78
2024/02/16 04:49:35;;;;;;;26.73;15.02;;;-6.50;98.80;;;;;;5074597;28;20020;-78
2024/02/16 04:52:01;;;;;;;29.25;14.18;;;-6.50;98.90;;;;;;5069427;28;20036;-78
2024/02/16 04:54:27;;;;;;;29.60;14.05;;;-6.50;98.90;;;;;;5071410;28;20358;-76
2024/02/16 04:56:53;;;;;;;23.35;15.35;;;-6.50;98.80;;;;;;5081222;28;20112;-78
2024/02/16 04:59:19;;;;;;;26.80;13.70;;;-6.50;98.80;;;;;;5073808;28;20475;-78
2024/02/16 05:01:45;;;;;;;22.85;13.57;;;-6.50;98.70;;;;;;5082915;28;20499;-78
2024/02/16 05:04:13;;;;;;;22.67;13.00;;;-6.50;98.60;;;;;;5076296;28;20041;-79
2024/02/16 05:06:40;;;;;;;27.00;13.63;;;-6.50;98.60;;;;;;5058953;28;20028;-78
2024/02/16 05:09:06;;;;;;;24.25;13.15;;;-6.50;98.60;;;;;;5067287;28;20147;-78
2024/02/16 05:11:35;;;;;;;24.55;13.10;;;-6.50;98.70;;;;;;5061621;28;20029;-80
2024/02/16 05:14:03;;;;;;;28.20;14.93;;;-6.40;98.90;;;;;;5053309;28;20033;-81
2024/02/16 05:16:29;;;;;;;24.67;15.80;;;-6.40;99.00;;;;;;5070237;28;20024;-82
2024/02/16 05:18:58;;;;;;;19.77;12.38;;;-6.40;99.00;;;;;;5072435;28;20025;-81
2024/02/16 05:21:24;;;;;;;20.55;12.35;;;-6.40;98.90;;;;;;5073799;28;20419;-81
2024/02/16 05:23:50;;;;;;;22.75;12.60;;;-6.40;98.90;;;;;;5073783;28;20100;-80
2024/02/16 05:26:16;;;;;;;24.25;12.45;;;-6.40;98.80;;;;;;5071734;28;20119;-82
2024/02/16 05:28:42;;;;;;;26.10;12.13;;;-6.40;98.80;;;;;;5072716;28;20044;-81
2024/02/16 05:31:17;;;;;;;18.33;10.32;;;-6.40;98.70;;;;;;5072602;28;20070;-80
2024/02/16 05:33:44;;;;;;;21.23;11.40;;;-6.40;98.60;;;;;;5072227;28;20020;-81
2024/02/16 05:36:11;;;;;;;21.33;11.13;;;-6.40;98.70;;;;;;5072554;28;20047;-80
2024/02/16 05:38:41;;;;;;;24.77;13.82;;;-6.40;99.00;;;;;;5075336;28;20024;-82
2024/02/16 05:41:07;;;;;;;22.92;13.50;;;-6.30;99.20;;;;;;5078743;28;20024;-80
2024/02/16 05:43:34;;;;;;;24.50;13.53;;;-6.30;99.10;;;;;;5064775;28;20069;-82
2024/02/16 05:46:00;;;;;;;17.53;12.57;;;-6.40;99.10;;;;;;5053285;28;20151;-81
2024/02/16 05:48:30;;;;;;;19.02;10.73;;;-6.30;99.10;;;;;;5053662;28;20296;-80
2024/02/16 05:51:03;;;;;;;22.15;13.13;;;-6.30;99.00;;;;;;5053803;28;20034;-79
2024/02/16 05:53:28;;;;;;;20.65;11.15;;;-6.30;98.90;;;;;;5053855;28;20033;-80
2024/02/16 05:55:55;;;;;;;22.30;12.68;;;-6.30;98.80;;;;;;5054189;28;20089;-80
2024/02/16 05:58:21;;;;;;;20.38;12.02;;;-6.30;98.50;;;;;;5053821;28;20037;-79
2024/02/16 06:00:48;;;;;;;21.90;10.98;;;-6.30;98.40;;;;;;5053052;28;20100;-79
2024/02/16 06:03:14;;;;;;;19.25;11.15;;;-6.20;98.60;;;;;;5052293;28;20536;-80
2024/02/16 06:05:40;;;;;;;19.38;12.23;;;-6.20;98.70;;;;;;5051368;28;20071;-77
2024/02/16 06:08:07;;;;;;;27.92;13.18;;;-6.20;98.60;;;;;;5051246;28;20021;-79
2024/02/16 06:10:33;;;;;;;20.10;10.75;;;-6.20;98.60;;;;;;5052990;28;20705;-76
2024/02/16 06:12:59;;;;;;;24.08;11.88;;;-6.20;98.60;;;;;;5051237;28;20083;-79
2024/02/16 06:15:26;;;;;;;23.20;12.50;;;-6.20;98.40;;;;;;5052125;28;20040;-79
2024/02/16 06:17:52;;;;;;;26.67;13.40;;;-6.20;98.30;;;;;;5051648;28;20658;-78
2024/02/16 06:20:18;;;;;;;19.77;11.80;;;-6.20;98.30;;;;;;5052208;28;22332;-79
2024/02/16 06:22:44;;;;;;;21.65;14.10;;;-6.10;98.30;;;;;;5053376;28;20040;-76
2024/02/16 06:25:10;;;;;;;27.25;12.70;;;-6.10;98.40;;;;;;5051568;28;20504;-78
2024/02/16 06:27:36;;;;;;;21.73;12.20;;;-6.10;98.20;;;;;;5052134;28;20028;-77
2024/02/16 06:30:07;;;;;;;31.73;11.77;;;-6.10;98.20;;;;;;5052178;28;20115;-79
2024/02/16 06:32:33;;;;;;;19.38;11.30;;;-6.00;98.30;;;;;;5053072;28;20021;-80
2024/02/16 06:34:59;;;;;;;22.27;11.27;;;-6.00;98.40;;;;;;5055157;28;20456;-81
2024/02/16 06:37:25;;;;;;;25.83;13.25;;;-6.00;98.50;;;;;;5054720;28;20108;-81
2024/02/16 06:39:51;;;;;;;22.50;12.32;;;-5.90;98.40;;;;;;5053992;28;20378;-78
2024/02/16 06:42:17;;;;;;;30.75;14.40;;;-5.90;98.30;;;;;;5051823;28;20020;-78
2024/02/16 06:44:43;;;;;;;27.13;15.13;;;-5.90;98.30;;;;;;5052715;28;20025;-77
2024/02/16 06:47:08;;;;;;;27.40;13.50;;;-5.80;98.20;;;;;;5051997;28;20036;-80
2024/02/16 06:49:34;;;;;;;30.45;16.13;;;-5.80;98.10;;;;;;5051825;28;20059;-81
2024/02/16 06:52:00;;;;;;;25.52;14.82;;;-5.80;98.10;;;;;;5055258;28;20107;-80
2024/02/16 06:54:26;;;;;;;29.00;14.43;;;-5.80;98.00;;;;;;5055918;28;20043;-80
2024/02/16 06:56:52;;;;;;;23.08;13.00;;;-5.70;98.00;;;;;;5055382;28;20031;-79
2024/02/16 06:59:18;;;;;;;25.02;13.15;;;-5.70;98.00;;;;;;5071930;28;20056;-81
2024/02/16 07:01:44;;;;;;;26.00;16.02;;;-5.70;98.00;;;;;;5072671;28;20017;-77
2024/02/16 07:04:10;;;;;;;32.15;13.40;;;-5.60;97.80;;;;;;5069930;28;20123;-77
2024/02/16 07:06:36;;;;;;;30.33;16.15;;;-5.60;97.70;;;;;;5071340;28;20105;-79
2024/02/16 07:09:04;;;;;;;23.50;14.20;;;-5.60;97.60;;;;;;5071468;28;20041;-79
2024/02/16 07:11:30;;;;;;;34.60;16.33;;;-5.60;97.50;;;;;;5079240;28;20020;-79
2024/02/16 07:13:56;;;;;;;21.15;14.65;;;-5.60;97.30;;;;;;5073552;28;20390;-81
2024/02/16 07:16:22;;;;;;;24.85;11.93;;;-5.60;96.60;;;;;;5066225;28;20088;-80
2024/02/16 07:18:48;;;;;;;29.17;13.13;;;-5.70;96.60;;;;;;5065013;28;20013;-79
2024/02/16 07:21:14;;;;;;;24.52;12.68;;;-5.70;96.90;;;;;;5072119;28;20100;-78
2024/02/16 07:23:39;;;;;;;26.42;14.75;;;-5.70;97.00;;;;;;5067310;28;20043;-79
2024/02/16 07:26:07;;;;;;;21.10;11.80;;;-5.60;97.10;;;;;;5064858;28;20050;-79
2024/02/16 07:28:32;;;;;;;;;;;-5.60;97.30;;;;;;5072421;28;20050;-80
2024/02/16 07:30:58;;;;;;;28.23;13.18;;;-5.60;97.30;;;;;;5071995;28;19995;-78
2024/02/16 07:33:25;;;;;;;29.40;15.75;;;-5.60;97.30;;;;;;5069003;28;20029;-84
2024/02/16 07:35:51;;;;;;;22.45;14.20;;;-5.60;97.40;;;;;;5065529;28;20787;-79
2024/02/16 07:38:17;;;;;;;23.23;12.35;;;-5.50;97.40;;;;;;5065073;28;20020;-78
2024/02/16 07:40:45;;;;;;;21.80;13.02;;;-5.50;97.50;;;;;;5057536;28;20082;-79
2024/02/16 07:43:11;;;;;;;30.05;15.57;;;-5.40;97.50;;;;;;5058841;28;20393;-79
2024/02/16 07:45:37;;;;;;;27.50;14.57;;;-5.40;97.40;;;;;;5070247;28;20078;-80
2024/02/16 07:48:05;;;;;;;27.75;14.10;;;-5.40;97.30;;;;;;5070298;28;20024;-78
2024/02/16 07:50:31;;;;;;;23.75;15.35;;;-5.40;96.90;;;;;;5061297;28;20406;-79
2024/02/16 07:52:58;;;;;;;26.23;13.10;;;-5.40;96.80;;;;;;5071581;28;20021;-79
2024/02/16 07:55:24;;;;;;;28.52;13.60;;;-5.40;97.20;;;;;;5071266;28;20412;-78
2024/02/16 07:57:51;;;;;;;30.73;13.88;;;-5.30;97.50;;;;;;5072258;28;20020;-80
2024/02/16 08:00:17;;;;;;;26.17;13.65;;;-5.30;97.40;;;;;;5071874;28;20122;-80
2024/02/16 08:02:43;;;;;;;25.50;13.10;;;-5.30;97.10;;;;;;5070634;28;20033;-80
2024/02/16 08:05:13;;;;;;;30.85;15.68;;;-5.30;97.10;;;;;;5072409;28;20422;-80
2024/02/16 08:07:42;;;;;;;28.02;15.80;;;-5.30;97.10;;;;;;5059261;28;20053;-78
2024/02/16 08:10:08;;;;;;;26.30;15.48;;;-5.30;96.90;;;;;;5065771;28;20086;-78
2024/02/16 08:12:35;;;;;;;27.52;17.52;;;-5.30;96.80;;;;;;5071592;28;20017;-77
2024/02/16 08:15:06;;;;;;;27.00;12.95;;;-5.30;96.70;;;;;;5071335;28;20503;-78
2024/02/16 08:17:34;;;;;;;26.85;15.25;;;-5.30;96.70;;;;;;5073689;28;20509;-84
2024/02/16 08:20:00;;;;;;;24.60;13.38;;;-5.30;96.50;;;;;;5071699;28;20024;-80
2024/02/16 08:22:26;;;;;;;26.27;14.43;;;-5.30;96.60;;;;;;5071302;28;20048;-76
2024/02/16 08:24:52;;;;;;;27.30;13.65;;;-5.30;96.60;;;;;;5067943;28;20025;-84
2024/02/16 08:27:18;;;;;;;24.35;14.20;;;-5.30;97.10;;;;;;5071659;28;20126;-79
2024/02/16 08:29:44;;;;;;;26.30;15.05;;;-5.20;97.10;;;;;;5071930;28;20044;-80
2024/02/16 08:32:10;;;;;;;32.08;16.50;;;-5.20;97.40;;;;;;5072484;28;20031;-77
2024/02/16 08:34:37;;;;;;;28.75;14.80;;;-5.20;97.50;;;;;;5071368;28;20075;-81
2024/02/16 08:37:04;;;;;;;25.92;15.43;;;-5.10;97.40;;;;;;5069304;28;20054;-77
2024/02/16 08:39:30;;;;;;;34.60;19.13;;;-5.10;97.40;;;;;;5070981;28;20020;-79
2024/02/16 08:41:57;;;;;;;25.77;16.00;;;-5.10;97.40;;;;;;5070879;28;20555;-77
2024/02/16 08:44:26;;;;;;;29.17;13.97;;;-5.10;97.30;;;;;;5069085;28;20405;-80
2024/02/16 08:46:53;;;;;;;25.52;15.07;;;-5.00;97.40;;;;;;5069822;28;20043;-80
2024/02/16 08:49:19;;;;;;;26.92;13.32;;;-5.00;97.10;;;;;;5070875;28;20025;-79
2024/02/16 08:51:45;;;;;;;34.33;17.23;;;-5.00;97.20;;;;;;5059468;28;20036;-79
2024/02/16 08:54:11;;;;;;;34.55;16.95;;;-5.00;97.40;;;;;;5073465;28;20091;-79
2024/02/16 08:56:39;;;;;;;32.58;16.02;;;-5.00;97.40;;;;;;5074754;28;20171;-79
2024/02/16 08:59:05;;;;;;;29.70;16.33;;;-4.90;97.20;;;;;;5073738;28;20021;-79
2024/02/16 09:01:33;;;;;;;24.87;13.67;;;-4.90;97.00;;;;;;5072991;28;20033;-79
2024/02/16 09:03:58;;;;;;;;;;;-4.90;97.00;;;;;;5074808;28;20024;-79
2024/02/16 09:06:24;;;;;;;25.95;14.60;;;-4.90;97.40;;;;;;5070840;28;20354;-78
2024/02/16 09:08:54;;;;;;;25.63;15.23;;;-4.90;97.80;;;;;;5073527;28;20074;-80
2024/02/16 09:11:20;;;;;;;25.45;14.55;;;-4.90;97.50;;;;;;5074185;28;20024;-78
2024/02/16 09:13:46;;;;;;;29.33;16.40;;;-4.80;97.60;;;;;;5074120;28;20020;-79
2024/02/16 09:16:12;;;;;;;29.27;15.73;;;-4.80;97.80;;;;;;5072910;28;20037;-78
2024/02/16 09:18:37;;;;;;;27.65;16.25;;;-4.80;97.60;;;;;;5074210;28;20027;-78
2024/02/16 09:21:04;;;;;;;28.35;15.38;;;-4.80;97.80;;;;;;5073964;28;20021;-77
2024/02/16 09:23:30;;;;;;;27.63;14.27;;;-4.70;97.80;;;;;;5073904;28;20500;-78
2024/02/16 09:25:56;;;;;;;26.52;14.85;;;-4.70;97.80;;;;;;5067451;28;20376;-80
2024/02/16 09:28:22;;;;;;;34.97;16.50;;;-4.70;97.90;;;;;;5073862;28;20048;-77
2024/02/16 09:30:48;;;;;;;29.38;15.93;;;-4.70;97.80;;;;;;5073975;28;20029;-77
2024/02/16 09:33:14;;;;;;;33.22;17.83;;;-4.70;97.50;;;;;;5071777;28;20028;-77
2024/02/16 09:35:44;;;;;;;31.40;17.08;;;-4.70;97.30;;;;;;5073896;28;20020;-80
2024/02/16 09:38:10;;;;;;;30.30;16.63;;;-4.70;97.00;;;;;;5074236;28;20017;-77
2024/02/16 09:40:37;;;;;;;34.80;18.90;;;-4.70;96.90;;;;;;5073547;28;20048;-77
2024/02/16 09:43:02;;;;;;;27.75;15.82;;;-4.70;96.70;;;;;;5073587;28;20354;-76
2024/02/16 09:45:31;;;;;;;34.58;18.58;;;-4.70;96.70;;;;;;5070568;28;20111;-79
2024/02/16 09:47:58;;;;;;;31.10;15.63;;;-4.70;96.60;;;;;;5055659;28;20104;-77
2024/02/16 09:50:24;;;;;;;22.20;14.52;;;-4.60;96.60;;;;;;5066497;28;20028;-79
2024/02/16 09:52:50;;;;;;;31.45;16.23;;;-4.60;96.80;;;;;;5059820;28;20020;-77
2024/02/16 09:55:20;;;;;;;31.20;16.37;;;-4.50;96.80;;;;;;5067572;28;20100;-80
2024/02/16 09:57:47;;;;;;;27.85;17.70;;;-4.50;97.00;;;;;;5071440;28;20021;-79
2024/02/16 10:00:13;;;;;;;31.23;19.65;;;-4.40;97.00;;;;;;5075079;28;20021;-79
2024/02/16 10:02:46;;;;;;;29.80;17.55;;;-4.40;96.40;;;;;;5069496;28;20017;-79
2024/02/16 10:05:13;;;;;;;38.30;17.45;;;-4.40;96.40;;;;;;5074460;28;20028;-80
2024/02/16 10:07:40;;;;;;;32.40;17.58;;;-4.30;96.40;;;;;;5075025;28;20029;-79
2024/02/16 10:10:06;;;;;;;30.85;17.48;;;-4.30;96.30;;;;;;5073737;28;20071;-78
2024/02/16 10:12:32;;;;;;;31.70;16.88;;;-4.20;96.30;;;;;;5075904;28;20031;-79
2024/02/16 10:15:00;;;;;;;32.00;17.00;;;-4.10;96.30;;;;;;5073228;28;20359;-78
2024/02/16 10:17:26;;;;;;;23.05;15.25;;;-4.10;96.00;;;;;;5074835;28;20428;-79
2024/02/16 10:19:59;;;;;;;31.83;17.10;;;-4.00;96.10;;;;;;5074541;28;20097;-81
2024/02/16 10:22:25;;;;;;;32.72;17.75;;;-4.00;96.30;;;;;;5074604;28;20481;-78
2024/02/16 10:24:51;;;;;;;40.60;25.60;;;-4.00;95.80;;;;;;5073587;28;20027;-78
2024/02/16 10:27:18;;;;;;;32.90;17.83;;;-4.00;95.50;;;;;;5073430;28;20444;-77
2024/02/16 10:29:50;;;;;;;37.63;17.08;;;-4.00;95.70;;;;;;5072040;28;20035;-78
2024/02/16 10:32:16;;;;;;;34.80;19.08;;;-3.90;95.90;;;;;;5070394;28;20067;-79
2024/02/16 10:34:45;;;;;;;29.30;19.10;;;-3.90;96.30;;;;;;5064608;28;20447;-80
2024/02/16 10:37:12;;;;;;;27.02;15.80;;;-3.90;96.00;;;;;;5069806;28;20756;-79
2024/02/16 10:39:39;;;;;;;29.65;17.95;;;-3.90;96.10;;;;;;5072868;28;20017;-81
2024/02/16 10:42:06;;;;;;;29.52;17.08;;;-4.00;96.30;;;;;;5072667;28;20037;-81
2024/02/16 10:44:33;;;;;;;33.55;18.60;;;-4.00;96.20;;;;;;5070947;28;20020;-81
2024/02/16 10:46:59;;;;;;;26.17;15.75;;;-4.00;96.00;;;;;;5072474;28;20055;-81
2024/02/16 10:49:25;;;;;;;31.50;17.38;;;-4.00;95.70;;;;;;5073415;28;20359;-81
2024/02/16 10:51:58;;;;;;;24.75;16.00;;;-4.00;95.70;;;;;;5072927;28;20419;-80
2024/02/16 10:54:29;;;;;;;30.38;16.80;;;-4.00;96.00;;;;;;5067287;28;20098;-79
2024/02/16 10:56:55;;;;;;;32.42;18.85;;;-4.10;95.40;;;;;;5067024;28;20065;-83
2024/02/16 10:59:21;;;;;;;33.17;19.65;;;-4.10;95.20;;;;;;5072522;28;20523;-81
2024/02/16 11:01:47;;;;;;;29.33;16.92;;;-4.10;95.30;;;;;;5075519;28;20028;-82
2024/02/16 11:04:18;;;;;;;27.45;17.95;;;-4.10;95.40;;;;;;5070978;28;20024;-82
2024/02/16 11:06:47;;;;;;;30.17;18.30;;;-4.10;95.70;;;;;;5072341;28;20029;-81
2024/02/16 11:09:36;;;;;;;30.92;16.52;;;-4.10;95.20;;;;;;5071675;28;20041;-79
2024/02/16 11:12:03;;;;;;;28.98;16.02;;;-4.10;95.40;;;;;;5064522;28;20376;-81
2024/02/16 11:14:36;;;;;;;;;;;-4.10;95.70;;;;;;5072470;28;20407;-77
2024/02/16 11:17:08;;;;;;;25.13;15.50;;;-4.10;95.80;;;;;;5071895;28;19912;-80
2024/02/16 11:19:34;;;;;;;25.95;17.02;;;-4.10;96.00;;;;;;5071724;28;20012;-79
2024/02/16 11:22:07;;;;;;;40.28;21.83;;;-4.10;96.00;;;;;;5071240;28;20285;-79
2024/02/16 11:24:34;;;;;;;29.52;18.33;;;-4.10;95.70;;;;;;5070909;28;20066;-79
2024/02/16 11:27:03;;;;;;;31.90;15.30;;;-4.10;95.50;;;;;;5070046;28;20398;-81
2024/02/16 11:29:36;;;;;;;30.75;16.42;;;-4.10;96.10;;;;;;5063047;28;20048;-80
2024/02/16 11:32:05;;;;;;;29.85;16.92;;;-4.00;96.30;;;;;;5069613;28;20050;-78
2024/02/16 11:34:32;;;;;;;28.50;16.85;;;-4.00;96.10;;;;;;5072072;28;20024;-80
2024/02/16 11:36:59;;;;;;;26.10;16.20;;;-3.90;96.20;;;;;;5072631;28;20017;-79
2024/02/16 11:39:25;;;;;;;;;;;-3.90;96.10;;;;;;5074153;28;20032;-78
2024/02/16 11:42:10;;;;;;;37.73;19.27;;;;;;;;;;5072127;28;20288;-81
2024/02/16 11:44:39;;;;;;;37.67;18.25;;;;;;;;;;5068095;28;20035;-80
2024/02/16 11:47:07;;;;;;;27.95;16.05;;;;;;;;;;5069441;28;20039;-81
2024/02/16 11:49:33;;;;;;;28.08;16.63;;;;;;;;;;5069231;28;20412;-79
2024/02/16 11:52:04;;;;;;;29.63;16.80;;;;;;;;;;5071257;28;20020;-80
2024/02/16 11:54:31;;;;;;;31.50;19.88;;;;;;;;;;5069160;28;20023;-79
2024/02/16 11:56:57;;;;;;;31.55;18.80;;;;;;;;;;5065733;28;20020;-79
2024/02/16 11:59:23;;;;;;;26.30;15.32;;;;;;;;;;5069991;28;20443;-78
2024/02/16 12:01:54;;;;;;;28.55;16.70;;;;;;;;;;5071524;28;20023;-80
2024/02/16 12:04:21;;;;;;;31.70;18.10;;;;;;;;;;5071654;28;20021;-78
2024/02/16 12:06:47;;;;;;;30.52;17.63;;;;;;;;;;5062779;28;20060;-84
2024/02/16 12:09:16;;;;;;;33.13;17.60;;;;;;;;;;5065440;28;20044;-85
2024/02/16 12:11:43;;;;;;;28.38;17.52;;;;;;;;;;5073099;28;20013;-87
2024/02/16 12:14:09;;;;;;;28.17;18.40;;;;;;;;;;5067548;28;20032;-78
2024/02/16 12:16:35;;;;;;;27.80;16.35;;;;;;;;;;5069092;28;20028;-80
2024/02/16 12:19:08;;;;;;;28.33;18.55;;;;;;;;;;5071335;28;20556;-79
2024/02/16 12:21:35;;;;;;;30.35;18.33;;;;;;;;;;5071118;28;20097;-78
2024/02/16 12:24:02;;;;;;;27.73;17.05;;;;;;;;;;5065375;28;20024;-80
2024/02/16 12:26:28;;;;;;;30.15;19.63;;;;;;;;;;5074104;28;20033;-78
2024/02/16 12:28:57;;;;;;;37.30;18.45;;;;;;;;;;5075069;28;20033;-81
2024/02/16 12:31:23;;;;;;;24.02;14.52;;;;;;;;;;5075459;28;20036;-80
2024/02/16 12:33:49;;;;;;;31.60;17.23;;;;;;;;;;5075607;28;20097;-79